CheckWX is a tool to help pilots better visualize weather data.  It is not intended as a substitute for an official pre-flight weather briefing.

15:56:22 UTC

KSGR METAR
Sugar Land Regional Airport
Houston, Texas, USA
Current

1 hour ago

KSGR 211453Z 03011KT 10SM CLR 07/02 A3065 RMK AO2 SLP381 T00720017 51020
Observed
Feb-21 @ 14:53 UTC
Wind
  • 030° at 11 KTS
Visibility
10 SM
Flight Rules
VFR
Cloud Levels
  • Clear skies
Temperature
C / 45°F
Dewpoint
C / 36°F
Humidity
71%
Altimeter
30.65" Hg
Pressure
1037.92 hPa
Previous

2 hours ago

KSGR 211353Z 01011KT 10SM CLR 06/02 A3063 RMK AO2 SLP375 T00560017
Observed
Feb-21 @ 13:53 UTC
Wind
  • 010° at 11 KTS
Visibility
10 SM
Flight Rules
VFR
Cloud Levels
  • Clear skies
Temperature
C / 43°F
Dewpoint
C / 36°F
Humidity
76%
Altimeter
30.63" Hg
Pressure
1037.22 hPa
Previous

3 hours ago

KSGR 211253Z 02009KT 10SM CLR 05/02 A3061 RMK AO2 SLP369 T00500017
Observed
Feb-21 @ 12:53 UTC
Wind
  • 020° at 9 KTS
Visibility
10 SM
Flight Rules
VFR
Cloud Levels
  • Clear skies
Temperature
C / 41°F
Dewpoint
C / 36°F
Humidity
81%
Altimeter
30.61" Hg
Pressure
1036.62 hPa